Terminal Aerodrome Forecast
Issued by NWS

Home | Current Version | Previous Version | Text Only | Print | Product List | Glossary On
Versions: 1 2 3 4 5 6 7 8 9 10 11 12
695
FTUS42 KTBW 292322
TAFLAL
TAF
KLAL 292322Z 3000/3024 11007KT P6SM SCT060
     FM300200 VRB03KT P6SM SKC
     FM301400 13008KT P6SM SCT050
      AMD NOT SKED 3002/3011=

USA.gov is the U.S. government's official web portal to all federal, state and local government web resources and services.